sensor_id;sensor_type;location;lat;lon;timestamp;temperature;humidity
19665;DHT22;9980;51.020;7.772;2023-07-28T00:00:29;20.20;99.90
19665;DHT22;9980;51.020;7.772;2023-07-28T00:02:56;20.10;99.90
19665;DHT22;9980;51.020;7.772;2023-07-28T00:05:23;20.10;99.90
19665;DHT22;9980;51.020;7.772;2023-07-28T00:07:50;20.10;99.90
19665;DHT22;9980;51.020;7.772;2023-07-28T00:10:17;20.10;99.90
19665;DHT22;9980;51.020;7.772;2023-07-28T00:12:44;20.10;99.90
19665;DHT22;9980;51.020;7.772;2023-07-28T00:15:11;20.10;99.90
19665;DHT22;9980;51.020;7.772;2023-07-28T00:17:38;20.10;99.90
19665;DHT22;9980;51.020;7.772;2023-07-28T00:20:05;20.10;99.90
19665;DHT22;9980;51.020;7.772;2023-07-28T00:22:33;20.10;99.90
19665;DHT22;9980;51.020;7.772;2023-07-28T00:25:00;20.10;99.90
19665;DHT22;9980;51.020;7.772;2023-07-28T00:27:30;20.10;99.90
19665;DHT22;9980;51.020;7.772;2023-07-28T00:29:57;20.10;99.90
19665;DHT22;9980;51.020;7.772;2023-07-28T00:32:24;20.10;99.90
19665;DHT22;9980;51.020;7.772;2023-07-28T00:34:51;20.00;99.90
19665;DHT22;9980;51.020;7.772;2023-07-28T00:37:18;20.00;99.90
19665;DHT22;9980;51.020;7.772;2023-07-28T00:39:45;20.00;99.90
19665;DHT22;9980;51.020;7.772;2023-07-28T00:42:12;20.00;99.90
19665;DHT22;9980;51.020;7.772;2023-07-28T00:44:39;20.00;99.90
19665;DHT22;9980;51.020;7.772;2023-07-28T00:47:06;20.00;99.90
19665;DHT22;9980;51.020;7.772;2023-07-28T00:49:34;20.00;99.90
19665;DHT22;9980;51.020;7.772;2023-07-28T00:52:01;20.00;99.90
19665;DHT22;9980;51.020;7.772;2023-07-28T00:54:29;20.00;99.90
19665;DHT22;9980;51.020;7.772;2023-07-28T00:56:56;20.00;99.90
19665;DHT22;9980;51.020;7.772;2023-07-28T00:59:23;20.00;99.90
19665;DHT22;9980;51.020;7.772;2023-07-28T01:01:50;20.00;99.90
19665;DHT22;9980;51.020;7.772;2023-07-28T01:04:17;20.00;99.90
19665;DHT22;9980;51.020;7.772;2023-07-28T01:07:03;20.00;99.90
19665;DHT22;9980;51.020;7.772;2023-07-28T01:09:43;20.00;99.90
19665;DHT22;9980;51.020;7.772;2023-07-28T01:12:17;20.00;99.90
19665;DHT22;9980;51.020;7.772;2023-07-28T01:14:44;20.00;99.90
19665;DHT22;9980;51.020;7.772;2023-07-28T01:17:11;20.00;99.90
19665;DHT22;9980;51.020;7.772;2023-07-28T01:19:38;20.00;99.90
19665;DHT22;9980;51.020;7.772;2023-07-28T01:25:00;20.00;99.90
19665;DHT22;9980;51.020;7.772;2023-07-28T01:27:45;20.00;99.90
19665;DHT22;9980;51.020;7.772;2023-07-28T01:30:12;20.00;99.90
19665;DHT22;9980;51.020;7.772;2023-07-28T01:32:39;20.00;99.90
19665;DHT22;9980;51.020;7.772;2023-07-28T01:35:07;20.00;99.90
19665;DHT22;9980;51.020;7.772;2023-07-28T01:37:34;20.00;99.90
19665;DHT22;9980;51.020;7.772;2023-07-28T01:40:01;20.00;99.90
19665;DHT22;9980;51.020;7.772;2023-07-28T01:42:29;20.00;99.90
19665;DHT22;9980;51.020;7.772;2023-07-28T01:44:56;20.00;99.90
19665;DHT22;9980;51.020;7.772;2023-07-28T01:47:23;20.00;99.90
19665;DHT22;9980;51.020;7.772;2023-07-28T01:49:51;20.00;99.90
19665;DHT22;9980;51.020;7.772;2023-07-28T01:52:19;20.00;99.90
19665;DHT22;9980;51.020;7.772;2023-07-28T01:54:46;20.00;99.90
19665;DHT22;9980;51.020;7.772;2023-07-28T01:57:12;20.00;99.90
19665;DHT22;9980;51.020;7.772;2023-07-28T01:59:40;20.00;99.90
19665;DHT22;9980;51.020;7.772;2023-07-28T02:02:07;20.00;99.90
19665;DHT22;9980;51.020;7.772;2023-07-28T02:04:33;20.00;99.90
19665;DHT22;9980;51.020;7.772;2023-07-28T02:07:00;20.00;99.90
19665;DHT22;9980;51.020;7.772;2023-07-28T02:09:27;20.00;99.90
19665;DHT22;9980;51.020;7.772;2023-07-28T02:11:54;20.00;99.90
19665;DHT22;9980;51.020;7.772;2023-07-28T02:14:21;20.00;99.90
19665;DHT22;9980;51.020;7.772;2023-07-28T02:16:48;20.00;99.90
19665;DHT22;9980;51.020;7.772;2023-07-28T02:19:15;19.90;99.90
19665;DHT22;9980;51.020;7.772;2023-07-28T02:21:42;20.00;99.90
19665;DHT22;9980;51.020;7.772;2023-07-28T02:24:09;19.90;99.90
19665;DHT22;9980;51.020;7.772;2023-07-28T02:26:36;19.90;99.90
19665;DHT22;9980;51.020;7.772;2023-07-28T02:29:16;19.90;99.90
19665;DHT22;9980;51.020;7.772;2023-07-28T02:31:44;19.90;99.90
19665;DHT22;9980;51.020;7.772;2023-07-28T02:34:11;19.90;99.90
19665;DHT22;9980;51.020;7.772;2023-07-28T02:36:38;19.90;99.90
19665;DHT22;9980;51.020;7.772;2023-07-28T02:39:05;20.00;99.90
19665;DHT22;9980;51.020;7.772;2023-07-28T02:41:32;19.90;99.90
19665;DHT22;9980;51.020;7.772;2023-07-28T02:43:59;20.00;99.90
19665;DHT22;9980;51.020;7.772;2023-07-28T02:46:26;20.00;99.90
19665;DHT22;9980;51.020;7.772;2023-07-28T02:48:53;19.90;99.90
19665;DHT22;9980;51.020;7.772;2023-07-28T02:51:20;20.00;99.90
19665;DHT22;9980;51.020;7.772;2023-07-28T02:53:47;20.00;99.90
19665;DHT22;9980;51.020;7.772;2023-07-28T02:56:14;20.00;99.90
19665;DHT22;9980;51.020;7.772;2023-07-28T02:58:41;20.00;99.90
19665;DHT22;9980;51.020;7.772;2023-07-28T03:01:08;20.00;99.90
19665;DHT22;9980;51.020;7.772;2023-07-28T03:03:36;20.00;99.90
19665;DHT22;9980;51.020;7.772;2023-07-28T03:06:04;20.00;99.90
19665;DHT22;9980;51.020;7.772;2023-07-28T03:08:33;20.00;99.90
19665;DHT22;9980;51.020;7.772;2023-07-28T03:11:16;20.00;99.90
19665;DHT22;9980;51.020;7.772;2023-07-28T03:13:43;20.00;99.90
19665;DHT22;9980;51.020;7.772;2023-07-28T03:16:12;20.00;99.90
19665;DHT22;9980;51.020;7.772;2023-07-28T03:18:39;20.00;99.90
19665;DHT22;9980;51.020;7.772;2023-07-28T03:21:05;20.00;99.90
19665;DHT22;9980;51.020;7.772;2023-07-28T03:23:32;20.00;99.90
19665;DHT22;9980;51.020;7.772;2023-07-28T03:26:00;20.00;99.90
19665;DHT22;9980;51.020;7.772;2023-07-28T03:28:27;20.00;99.90
19665;DHT22;9980;51.020;7.772;2023-07-28T03:30:54;20.00;99.90
19665;DHT22;9980;51.020;7.772;2023-07-28T03:33:21;20.00;99.90
19665;DHT22;9980;51.020;7.772;2023-07-28T03:35:48;20.00;99.90
19665;DHT22;9980;51.020;7.772;2023-07-28T03:38:15;20.00;99.90
19665;DHT22;9980;51.020;7.772;2023-07-28T03:40:42;20.00;99.90
19665;DHT22;9980;51.020;7.772;2023-07-28T03:43:10;20.00;99.90
19665;DHT22;9980;51.020;7.772;2023-07-28T03:45:37;20.00;99.90
19665;DHT22;9980;51.020;7.772;2023-07-28T03:48:04;20.00;99.90
19665;DHT22;9980;51.020;7.772;2023-07-28T03:50:31;20.00;99.90
19665;DHT22;9980;51.020;7.772;2023-07-28T03:52:58;20.00;99.90
19665;DHT22;9980;51.020;7.772;2023-07-28T03:55:25;20.00;99.90
19665;DHT22;9980;51.020;7.772;2023-07-28T03:57:52;20.00;99.90
19665;DHT22;9980;51.020;7.772;2023-07-28T04:00:19;20.00;99.90
19665;DHT22;9980;51.020;7.772;2023-07-28T04:02:47;20.00;99.90
19665;DHT22;9980;51.020;7.772;2023-07-28T04:05:14;20.00;99.90
19665;DHT22;9980;51.020;7.772;2023-07-28T04:07:41;20.00;99.90
19665;DHT22;9980;51.020;7.772;2023-07-28T04:10:08;20.00;99.90
19665;DHT22;9980;51.020;7.772;2023-07-28T04:12:35;20.00;99.90
19665;DHT22;9980;51.020;7.772;2023-07-28T04:15:02;20.00;99.90
19665;DHT22;9980;51.020;7.772;2023-07-28T04:17:29;20.00;99.90
19665;DHT22;9980;51.020;7.772;2023-07-28T04:19:56;20.10;99.90
19665;DHT22;9980;51.020;7.772;2023-07-28T04:22:23;20.10;99.90
19665;DHT22;9980;51.020;7.772;2023-07-28T04:24:52;20.10;99.90
19665;DHT22;9980;51.020;7.772;2023-07-28T04:27:20;20.10;99.90
19665;DHT22;9980;51.020;7.772;2023-07-28T04:29:48;20.10;99.90
19665;DHT22;9980;51.020;7.772;2023-07-28T04:32:19;20.10;99.90
19665;DHT22;9980;51.020;7.772;2023-07-28T04:34:47;20.10;99.90
19665;DHT22;9980;51.020;7.772;2023-07-28T04:37:16;20.10;99.90
19665;DHT22;9980;51.020;7.772;2023-07-28T04:39:56;20.10;99.90
19665;DHT22;9980;51.020;7.772;2023-07-28T04:42:25;20.10;99.90
19665;DHT22;9980;51.020;7.772;2023-07-28T04:44:52;20.10;99.90
19665;DHT22;9980;51.020;7.772;2023-07-28T04:47:19;20.10;99.90
19665;DHT22;9980;51.020;7.772;2023-07-28T04:49:46;20.20;99.90
19665;DHT22;9980;51.020;7.772;2023-07-28T04:52:32;20.20;99.90
19665;DHT22;9980;51.020;7.772;2023-07-28T04:55:25;20.20;99.90
19665;DHT22;9980;51.020;7.772;2023-07-28T04:57:53;20.20;99.90
19665;DHT22;9980;51.020;7.772;2023-07-28T05:00:23;20.20;99.90
19665;DHT22;9980;51.020;7.772;2023-07-28T05:02:50;20.20;99.90
19665;DHT22;9980;51.020;7.772;2023-07-28T05:05:17;20.30;99.90
19665;DHT22;9980;51.020;7.772;2023-07-28T05:07:44;20.30;99.90
19665;DHT22;9980;51.020;7.772;2023-07-28T05:10:14;20.30;99.90
19665;DHT22;9980;51.020;7.772;2023-07-28T05:12:42;20.30;99.90
19665;DHT22;9980;51.020;7.772;2023-07-28T05:15:09;20.30;99.90
19665;DHT22;9980;51.020;7.772;2023-07-28T05:17:38;20.40;99.90
19665;DHT22;9980;51.020;7.772;2023-07-28T05:20:32;20.40;99.90
19665;DHT22;9980;51.020;7.772;2023-07-28T05:23:09;20.40;99.90
19665;DHT22;9980;51.020;7.772;2023-07-28T05:25:36;20.50;99.90
19665;DHT22;9980;51.020;7.772;2023-07-28T05:28:03;20.50;99.90
19665;DHT22;9980;51.020;7.772;2023-07-28T05:30:33;20.50;99.90
19665;DHT22;9980;51.020;7.772;2023-07-28T05:33:00;20.50;99.90
19665;DHT22;9980;51.020;7.772;2023-07-28T05:35:37;20.60;99.90
19665;DHT22;9980;51.020;7.772;2023-07-28T05:38:04;20.60;99.90
19665;DHT22;9980;51.020;7.772;2023-07-28T05:40:32;20.60;99.90
19665;DHT22;9980;51.020;7.772;2023-07-28T05:42:59;20.70;99.90
19665;DHT22;9980;51.020;7.772;2023-07-28T05:45:26;20.70;99.90
19665;DHT22;9980;51.020;7.772;2023-07-28T05:47:53;20.70;99.90
19665;DHT22;9980;51.020;7.772;2023-07-28T05:50:20;20.70;99.90
19665;DHT22;9980;51.020;7.772;2023-07-28T05:52:47;20.80;99.90
19665;DHT22;9980;51.020;7.772;2023-07-28T05:55:14;20.80;99.90
19665;DHT22;9980;51.020;7.772;2023-07-28T05:57:42;20.90;99.90
19665;DHT22;9980;51.020;7.772;2023-07-28T06:00:09;20.90;99.90
19665;DHT22;9980;51.020;7.772;2023-07-28T06:02:41;21.00;99.90
19665;DHT22;9980;51.020;7.772;2023-07-28T06:05:17;21.00;99.90
19665;DHT22;9980;51.020;7.772;2023-07-28T06:07:49;21.00;99.90
19665;DHT22;9980;51.020;7.772;2023-07-28T06:10:16;21.10;99.90
19665;DHT22;9980;51.020;7.772;2023-07-28T06:12:43;21.10;99.90
19665;DHT22;9980;51.020;7.772;2023-07-28T06:15:10;21.10;99.90
19665;DHT22;9980;51.020;7.772;2023-07-28T06:17:38;21.20;99.90
19665;DHT22;9980;51.020;7.772;2023-07-28T06:20:06;21.20;99.90
19665;DHT22;9980;51.020;7.772;2023-07-28T06:22:33;21.20;99.90
19665;DHT22;9980;51.020;7.772;2023-07-28T06:25:01;21.30;99.90
19665;DHT22;9980;51.020;7.772;2023-07-28T06:27:28;21.30;99.90
19665;DHT22;9980;51.020;7.772;2023-07-28T06:29:55;21.30;99.90
19665;DHT22;9980;51.020;7.772;2023-07-28T06:32:22;21.30;99.90
19665;DHT22;9980;51.020;7.772;2023-07-28T06:34:50;21.40;99.90
19665;DHT22;9980;51.020;7.772;2023-07-28T06:37:18;21.40;99.90
19665;DHT22;9980;51.020;7.772;2023-07-28T06:39:46;21.40;99.90
19665;DHT22;9980;51.020;7.772;2023-07-28T06:42:13;21.50;99.90
19665;DHT22;9980;51.020;7.772;2023-07-28T06:44:40;21.50;99.90
19665;DHT22;9980;51.020;7.772;2023-07-28T06:47:07;21.50;99.90
19665;DHT22;9980;51.020;7.772;2023-07-28T06:49:34;21.50;99.90
19665;DHT22;9980;51.020;7.772;2023-07-28T06:52:01;21.60;99.90
19665;DHT22;9980;51.020;7.772;2023-07-28T06:54:28;21.60;99.90
19665;DHT22;9980;51.020;7.772;2023-07-28T06:56:55;21.60;99.90
19665;DHT22;9980;51.020;7.772;2023-07-28T06:59:22;21.70;99.90
19665;DHT22;9980;51.020;7.772;2023-07-28T07:01:49;21.70;99.90
19665;DHT22;9980;51.020;7.772;2023-07-28T07:04:16;21.70;99.90
19665;DHT22;9980;51.020;7.772;2023-07-28T07:06:43;21.80;99.90
19665;DHT22;9980;51.020;7.772;2023-07-28T07:09:12;21.90;99.90
19665;DHT22;9980;51.020;7.772;2023-07-28T07:11:42;21.90;99.90
19665;DHT22;9980;51.020;7.772;2023-07-28T07:14:09;21.90;99.90
19665;DHT22;9980;51.020;7.772;2023-07-28T07:16:36;21.90;99.90
19665;DHT22;9980;51.020;7.772;2023-07-28T07:19:03;22.00;99.90
19665;DHT22;9980;51.020;7.772;2023-07-28T07:21:31;22.00;99.90
19665;DHT22;9980;51.020;7.772;2023-07-28T07:23:58;22.00;99.90
19665;DHT22;9980;51.020;7.772;2023-07-28T07:26:25;22.00;99.90
19665;DHT22;9980;51.020;7.772;2023-07-28T07:28:59;22.10;99.90
19665;DHT22;9980;51.020;7.772;2023-07-28T07:31:30;22.20;99.90
19665;DHT22;9980;51.020;7.772;2023-07-28T07:34:00;22.20;99.90
19665;DHT22;9980;51.020;7.772;2023-07-28T07:36:27;22.30;99.90
19665;DHT22;9980;51.020;7.772;2023-07-28T07:38:54;22.30;99.90
19665;DHT22;9980;51.020;7.772;2023-07-28T07:41:22;22.30;99.90
19665;DHT22;9980;51.020;7.772;2023-07-28T07:43:52;22.30;99.90
19665;DHT22;9980;51.020;7.772;2023-07-28T07:46:20;22.40;99.90
19665;DHT22;9980;51.020;7.772;2023-07-28T07:48:48;22.40;99.90
19665;DHT22;9980;51.020;7.772;2023-07-28T07:51:16;22.50;99.90
19665;DHT22;9980;51.020;7.772;2023-07-28T07:53:43;22.50;99.90
19665;DHT22;9980;51.020;7.772;2023-07-28T07:56:10;22.50;99.90
19665;DHT22;9980;51.020;7.772;2023-07-28T07:58:37;22.60;99.90
19665;DHT22;9980;51.020;7.772;2023-07-28T08:01:05;22.60;99.90
19665;DHT22;9980;51.020;7.772;2023-07-28T08:03:32;22.60;99.90
19665;DHT22;9980;51.020;7.772;2023-07-28T08:05:59;22.70;99.90
19665;DHT22;9980;51.020;7.772;2023-07-28T08:08:26;22.70;99.90
19665;DHT22;9980;51.020;7.772;2023-07-28T08:10:54;22.80;99.90
19665;DHT22;9980;51.020;7.772;2023-07-28T08:13:21;22.80;99.90
19665;DHT22;9980;51.020;7.772;2023-07-28T08:15:49;22.80;99.90
19665;DHT22;9980;51.020;7.772;2023-07-28T08:18:16;22.80;99.90
19665;DHT22;9980;51.020;7.772;2023-07-28T08:20:43;22.90;99.90
19665;DHT22;9980;51.020;7.772;2023-07-28T08:23:10;22.90;99.90
19665;DHT22;9980;51.020;7.772;2023-07-28T08:25:37;23.00;99.90
19665;DHT22;9980;51.020;7.772;2023-07-28T08:28:04;23.00;99.90
19665;DHT22;9980;51.020;7.772;2023-07-28T08:30:31;23.00;99.90
19665;DHT22;9980;51.020;7.772;2023-07-28T08:32:59;23.00;99.90
19665;DHT22;9980;51.020;7.772;2023-07-28T08:35:26;23.10;99.90
19665;DHT22;9980;51.020;7.772;2023-07-28T08:38:01;23.10;99.90
19665;DHT22;9980;51.020;7.772;2023-07-28T08:40:33;23.10;99.90
19665;DHT22;9980;51.020;7.772;2023-07-28T08:43:00;23.10;99.90
19665;DHT22;9980;51.020;7.772;2023-07-28T08:45:27;23.20;99.90
19665;DHT22;9980;51.020;7.772;2023-07-28T08:47:54;23.30;99.90
19665;DHT22;9980;51.020;7.772;2023-07-28T08:50:21;23.30;99.90
19665;DHT22;9980;51.020;7.772;2023-07-28T08:52:49;23.30;99.90
19665;DHT22;9980;51.020;7.772;2023-07-28T08:55:17;23.40;99.90
19665;DHT22;9980;51.020;7.772;2023-07-28T08:57:47;23.40;99.90
19665;DHT22;9980;51.020;7.772;2023-07-28T09:00:15;23.40;99.90
19665;DHT22;9980;51.020;7.772;2023-07-28T09:02:44;23.40;99.90
19665;DHT22;9980;51.020;7.772;2023-07-28T09:05:21;23.40;99.90
19665;DHT22;9980;51.020;7.772;2023-07-28T09:07:50;23.40;99.90
19665;DHT22;9980;51.020;7.772;2023-07-28T09:10:18;23.40;99.90
19665;DHT22;9980;51.020;7.772;2023-07-28T09:12:47;23.40;99.90
19665;DHT22;9980;51.020;7.772;2023-07-28T09:15:17;23.40;99.90
19665;DHT22;9980;51.020;7.772;2023-07-28T09:17:44;23.40;99.90
19665;DHT22;9980;51.020;7.772;2023-07-28T09:20:14;23.40;99.90
19665;DHT22;9980;51.020;7.772;2023-07-28T09:22:43;23.40;99.90
19665;DHT22;9980;51.020;7.772;2023-07-28T09:25:15;23.40;99.90
19665;DHT22;9980;51.020;7.772;2023-07-28T09:27:50;23.50;99.90
19665;DHT22;9980;51.020;7.772;2023-07-28T09:30:18;23.60;99.90
19665;DHT22;9980;51.020;7.772;2023-07-28T09:32:50;23.70;99.90
19665;DHT22;9980;51.020;7.772;2023-07-28T09:35:22;23.80;99.90
19665;DHT22;9980;51.020;7.772;2023-07-28T09:37:50;23.80;99.90
19665;DHT22;9980;51.020;7.772;2023-07-28T09:40:22;23.90;99.90
19665;DHT22;9980;51.020;7.772;2023-07-28T09:43:12;24.00;99.90
19665;DHT22;9980;51.020;7.772;2023-07-28T09:45:56;24.00;99.90
19665;DHT22;9980;51.020;7.772;2023-07-28T09:48:24;24.10;99.90
19665;DHT22;9980;51.020;7.772;2023-07-28T09:50:55;24.10;99.90
19665;DHT22;9980;51.020;7.772;2023-07-28T09:53:26;24.20;99.90
19665;DHT22;9980;51.020;7.772;2023-07-28T09:55:55;24.30;99.90
19665;DHT22;9980;51.020;7.772;2023-07-28T09:58:25;24.30;99.90
19665;DHT22;9980;51.020;7.772;2023-07-28T10:00:54;24.40;99.90
19665;DHT22;9980;51.020;7.772;2023-07-28T10:03:26;24.50;99.90
19665;DHT22;9980;51.020;7.772;2023-07-28T10:05:53;24.60;99.90
19665;DHT22;9980;51.020;7.772;2023-07-28T10:08:20;24.70;99.90
19665;DHT22;9980;51.020;7.772;2023-07-28T10:10:50;24.80;99.90
19665;DHT22;9980;51.020;7.772;2023-07-28T10:13:20;24.90;99.90
19665;DHT22;9980;51.020;7.772;2023-07-28T10:15:50;25.00;99.90
19665;DHT22;9980;51.020;7.772;2023-07-28T10:18:20;25.10;99.90
19665;DHT22;9980;51.020;7.772;2023-07-28T10:20:48;25.10;99.90
19665;DHT22;9980;51.020;7.772;2023-07-28T10:23:17;25.10;99.90
19665;DHT22;9980;51.020;7.772;2023-07-28T10:25:59;25.10;99.90
19665;DHT22;9980;51.020;7.772;2023-07-28T10:28:34;25.10;99.90
19665;DHT22;9980;51.020;7.772;2023-07-28T10:31:09;25.10;99.90
19665;DHT22;9980;51.020;7.772;2023-07-28T10:33:44;25.20;99.90
19665;DHT22;9980;51.020;7.772;2023-07-28T10:39:01;25.30;99.90
19665;DHT22;9980;51.020;7.772;2023-07-28T10:41:54;25.40;99.90
19665;DHT22;9980;51.020;7.772;2023-07-28T10:44:27;25.40;99.90
19665;DHT22;9980;51.020;7.772;2023-07-28T10:46:54;25.50;99.90
19665;DHT22;9980;51.020;7.772;2023-07-28T10:49:21;25.60;99.90
19665;DHT22;9980;51.020;7.772;2023-07-28T10:51:48;25.60;99.90
19665;DHT22;9980;51.020;7.772;2023-07-28T10:54:15;25.60;99.90
19665;DHT22;9980;51.020;7.772;2023-07-28T10:56:47;25.70;99.90
19665;DHT22;9980;51.020;7.772;2023-07-28T10:59:15;25.70;99.90
19665;DHT22;9980;51.020;7.772;2023-07-28T11:01:43;25.70;99.90
19665;DHT22;9980;51.020;7.772;2023-07-28T11:04:19;25.70;99.90
19665;DHT22;9980;51.020;7.772;2023-07-28T11:06:49;25.70;99.90
19665;DHT22;9980;51.020;7.772;2023-07-28T11:09:18;25.70;99.90
19665;DHT22;9980;51.020;7.772;2023-07-28T11:11:46;25.70;99.90
19665;DHT22;9980;51.020;7.772;2023-07-28T11:14:15;25.70;99.90
19665;DHT22;9980;51.020;7.772;2023-07-28T11:16:44;25.70;99.90
19665;DHT22;9980;51.020;7.772;2023-07-28T11:19:14;25.70;99.90
19665;DHT22;9980;51.020;7.772;2023-07-28T11:21:42;25.70;99.90
19665;DHT22;9980;51.020;7.772;2023-07-28T11:24:10;25.70;99.90
19665;DHT22;9980;51.020;7.772;2023-07-28T11:26:39;25.80;99.90
19665;DHT22;9980;51.020;7.772;2023-07-28T11:29:07;25.80;99.90
19665;DHT22;9980;51.020;7.772;2023-07-28T11:31:34;26.00;99.90
19665;DHT22;9980;51.020;7.772;2023-07-28T11:34:01;26.00;99.90
19665;DHT22;9980;51.020;7.772;2023-07-28T11:36:34;26.10;99.90
19665;DHT22;9980;51.020;7.772;2023-07-28T11:39:01;26.20;99.90
19665;DHT22;9980;51.020;7.772;2023-07-28T11:41:33;26.30;99.90
19665;DHT22;9980;51.020;7.772;2023-07-28T11:44:00;26.40;99.90
19665;DHT22;9980;51.020;7.772;2023-07-28T11:46:32;26.50;99.90
19665;DHT22;9980;51.020;7.772;2023-07-28T11:51:44;26.70;99.90
19665;DHT22;9980;51.020;7.772;2023-07-28T11:54:16;26.70;99.90
19665;DHT22;9980;51.020;7.772;2023-07-28T11:56:56;26.80;99.90
19665;DHT22;9980;51.020;7.772;2023-07-28T11:59:24;26.90;99.90
19665;DHT22;9980;51.020;7.772;2023-07-28T12:02:02;26.90;99.90
19665;DHT22;9980;51.020;7.772;2023-07-28T12:04:38;26.90;99.90
19665;DHT22;9980;51.020;7.772;2023-07-28T12:07:16;26.80;99.90
19665;DHT22;9980;51.020;7.772;2023-07-28T12:12:24;26.80;99.80
19665;DHT22;9980;51.020;7.772;2023-07-28T12:14:53;26.70;99.60
19665;DHT22;9980;51.020;7.772;2023-07-28T12:17:24;26.60;99.90
19665;DHT22;9980;51.020;7.772;2023-07-28T12:20:14;26.60;99.50
19665;DHT22;9980;51.020;7.772;2023-07-28T12:22:43;26.60;99.90
19665;DHT22;9980;51.020;7.772;2023-07-28T12:25:12;26.60;99.90
19665;DHT22;9980;51.020;7.772;2023-07-28T12:27:39;26.70;99.90
19665;DHT22;9980;51.020;7.772;2023-07-28T12:30:07;26.70;99.90
19665;DHT22;9980;51.020;7.772;2023-07-28T12:32:42;26.80;99.90
19665;DHT22;9980;51.020;7.772;2023-07-28T12:35:29;26.90;99.90
19665;DHT22;9980;51.020;7.772;2023-07-28T12:38:05;27.00;99.90
19665;DHT22;9980;51.020;7.772;2023-07-28T12:40:35;27.10;99.70
19665;DHT22;9980;51.020;7.772;2023-07-28T12:43:05;27.20;99.50
19665;DHT22;9980;51.020;7.772;2023-07-28T12:45:34;27.20;99.60
19665;DHT22;9980;51.020;7.772;2023-07-28T12:48:03;27.30;99.40
19665;DHT22;9980;51.020;7.772;2023-07-28T12:50:30;27.30;99.50
19665;DHT22;9980;51.020;7.772;2023-07-28T12:53:07;27.30;99.90
19665;DHT22;9980;51.020;7.772;2023-07-28T12:55:42;27.30;99.90
19665;DHT22;9980;51.020;7.772;2023-07-28T12:58:13;27.30;99.80
19665;DHT22;9980;51.020;7.772;2023-07-28T13:00:51;27.30;99.50
19665;DHT22;9980;51.020;7.772;2023-07-28T13:03:21;27.40;99.70
19665;DHT22;9980;51.020;7.772;2023-07-28T13:05:48;27.40;99.60
19665;DHT22;9980;51.020;7.772;2023-07-28T13:08:15;27.40;99.30
19665;DHT22;9980;51.020;7.772;2023-07-28T13:10:43;27.50;99.40
19665;DHT22;9980;51.020;7.772;2023-07-28T13:13:13;27.50;99.30
19665;DHT22;9980;51.020;7.772;2023-07-28T13:15:41;27.60;99.20
19665;DHT22;9980;51.020;7.772;2023-07-28T13:18:08;27.60;99.20
19665;DHT22;9980;51.020;7.772;2023-07-28T13:20:35;27.60;99.80
19665;DHT22;9980;51.020;7.772;2023-07-28T13:23:02;27.60;99.10
19665;DHT22;9980;51.020;7.772;2023-07-28T13:25:29;27.70;99.40
19665;DHT22;9980;51.020;7.772;2023-07-28T13:27:56;27.70;99.30
19665;DHT22;9980;51.020;7.772;2023-07-28T13:30:23;27.80;99.60
19665;DHT22;9980;51.020;7.772;2023-07-28T13:32:52;27.90;98.80
19665;DHT22;9980;51.020;7.772;2023-07-28T13:35:20;27.90;99.20
19665;DHT22;9980;51.020;7.772;2023-07-28T13:37:47;28.00;98.90
19665;DHT22;9980;51.020;7.772;2023-07-28T13:40:14;28.10;99.20
19665;DHT22;9980;51.020;7.772;2023-07-28T13:42:41;28.20;98.90
19665;DHT22;9980;51.020;7.772;2023-07-28T13:45:09;28.30;99.30
19665;DHT22;9980;51.020;7.772;2023-07-28T13:47:36;28.40;98.90
19665;DHT22;9980;51.020;7.772;2023-07-28T13:50:03;28.50;98.50
19665;DHT22;9980;51.020;7.772;2023-07-28T13:52:30;28.60;98.30
19665;DHT22;9980;51.020;7.772;2023-07-28T13:54:58;28.70;97.80
19665;DHT22;9980;51.020;7.772;2023-07-28T13:57:28;28.80;98.20
19665;DHT22;9980;51.020;7.772;2023-07-28T13:59:55;28.80;97.70
19665;DHT22;9980;51.020;7.772;2023-07-28T14:02:21;28.90;97.70
19665;DHT22;9980;51.020;7.772;2023-07-28T14:04:49;28.90;97.40
19665;DHT22;9980;51.020;7.772;2023-07-28T14:07:17;28.90;97.10
19665;DHT22;9980;51.020;7.772;2023-07-28T14:09:44;29.00;96.90
19665;DHT22;9980;51.020;7.772;2023-07-28T14:12:14;29.00;97.40
19665;DHT22;9980;51.020;7.772;2023-07-28T14:14:45;29.00;95.80
19665;DHT22;9980;51.020;7.772;2023-07-28T14:17:11;29.10;97.10
19665;DHT22;9980;51.020;7.772;2023-07-28T14:19:39;29.10;97.00
19665;DHT22;9980;51.020;7.772;2023-07-28T14:22:07;29.10;96.50
19665;DHT22;9980;51.020;7.772;2023-07-28T14:24:35;29.10;96.70
19665;DHT22;9980;51.020;7.772;2023-07-28T14:27:02;29.10;96.40
19665;DHT22;9980;51.020;7.772;2023-07-28T14:29:29;29.10;96.60
19665;DHT22;9980;51.020;7.772;2023-07-28T14:31:56;29.10;96.10
19665;DHT22;9980;51.020;7.772;2023-07-28T14:34:23;29.10;96.00
19665;DHT22;9980;51.020;7.772;2023-07-28T14:36:50;29.00;95.60
19665;DHT22;9980;51.020;7.772;2023-07-28T14:39:17;29.00;95.70
19665;DHT22;9980;51.020;7.772;2023-07-28T14:41:44;28.90;95.60
19665;DHT22;9980;51.020;7.772;2023-07-28T14:44:11;28.90;95.80
19665;DHT22;9980;51.020;7.772;2023-07-28T14:46:39;28.80;95.70
19665;DHT22;9980;51.020;7.772;2023-07-28T14:49:06;28.70;95.90
19665;DHT22;9980;51.020;7.772;2023-07-28T14:51:33;28.60;96.00
19665;DHT22;9980;51.020;7.772;2023-07-28T14:54:00;28.50;95.80
19665;DHT22;9980;51.020;7.772;2023-07-28T14:56:27;28.40;96.10
19665;DHT22;9980;51.020;7.772;2023-07-28T14:58:54;28.30;95.70
19665;DHT22;9980;51.020;7.772;2023-07-28T15:01:24;28.30;96.00
19665;DHT22;9980;51.020;7.772;2023-07-28T15:03:52;28.20;96.30
19665;DHT22;9980;51.020;7.772;2023-07-28T15:06:19;28.10;96.20
19665;DHT22;9980;51.020;7.772;2023-07-28T15:08:46;28.10;96.40
19665;DHT22;9980;51.020;7.772;2023-07-28T15:11:14;28.00;96.50
19665;DHT22;9980;51.020;7.772;2023-07-28T15:13:44;28.00;96.10
19665;DHT22;9980;51.020;7.772;2023-07-28T15:16:11;27.90;96.60
19665;DHT22;9980;51.020;7.772;2023-07-28T15:18:39;27.90;96.30
19665;DHT22;9980;51.020;7.772;2023-07-28T15:21:11;27.90;97.20
19665;DHT22;9980;51.020;7.772;2023-07-28T15:23:38;27.80;96.70
19665;DHT22;9980;51.020;7.772;2023-07-28T15:26:05;27.80;96.50
19665;DHT22;9980;51.020;7.772;2023-07-28T15:28:32;27.80;96.50
19665;DHT22;9980;51.020;7.772;2023-07-28T15:30:59;27.70;97.10
19665;DHT22;9980;51.020;7.772;2023-07-28T15:33:26;27.60;96.80
19665;DHT22;9980;51.020;7.772;2023-07-28T15:35:56;27.60;97.20
19665;DHT22;9980;51.020;7.772;2023-07-28T15:38:24;27.50;97.20
19665;DHT22;9980;51.020;7.772;2023-07-28T15:40:51;27.50;97.30
19665;DHT22;9980;51.020;7.772;2023-07-28T15:43:24;27.40;97.30
19665;DHT22;9980;51.020;7.772;2023-07-28T15:45:51;27.30;97.00
19665;DHT22;9980;51.020;7.772;2023-07-28T15:48:21;27.20;97.10
19665;DHT22;9980;51.020;7.772;2023-07-28T15:50:48;27.10;97.30
19665;DHT22;9980;51.020;7.772;2023-07-28T15:53:15;27.00;97.50
19665;DHT22;9980;51.020;7.772;2023-07-28T15:55:42;26.90;97.90
19665;DHT22;9980;51.020;7.772;2023-07-28T15:58:10;26.90;98.60
19665;DHT22;9980;51.020;7.772;2023-07-28T16:00:37;26.80;98.10
19665;DHT22;9980;51.020;7.772;2023-07-28T16:03:04;26.80;98.60
19665;DHT22;9980;51.020;7.772;2023-07-28T16:05:32;26.80;98.30